sensor_id;sensor_type;location;lat;lon;timestamp;P1;durP1;ratioP1;P2;durP2;ratioP2
13793;SDS011;31160;49.500;7.772;2024-03-22T00:01:51;4.60;;;3.00;;
13793;SDS011;31160;49.500;7.772;2024-03-22T00:04:18;2.80;;;2.40;;
13793;SDS011;31160;49.500;7.772;2024-03-22T00:06:46;4.80;;;2.70;;
13793;SDS011;31160;49.500;7.772;2024-03-22T00:09:14;4.80;;;2.50;;
13793;SDS011;31160;49.500;7.772;2024-03-22T00:11:41;4.83;;;2.10;;
13793;SDS011;31160;49.500;7.772;2024-03-22T00:14:09;2.73;;;1.83;;
13793;SDS011;31160;49.500;7.772;2024-03-22T00:16:36;2.80;;;2.23;;
13793;SDS011;31160;49.500;7.772;2024-03-22T00:19:03;3.20;;;2.50;;
13793;SDS011;31160;49.500;7.772;2024-03-22T00:21:29;3.83;;;2.37;;
13793;SDS011;31160;49.500;7.772;2024-03-22T00:23:56;4.50;;;2.43;;
13793;SDS011;31160;49.500;7.772;2024-03-22T00:26:23;3.77;;;2.50;;
13793;SDS011;31160;49.500;7.772;2024-03-22T00:28:50;5.97;;;2.43;;
13793;SDS011;31160;49.500;7.772;2024-03-22T00:31:17;5.47;;;1.97;;
13793;SDS011;31160;49.500;7.772;2024-03-22T00:33:44;3.27;;;2.50;;
13793;SDS011;31160;49.500;7.772;2024-03-22T00:36:11;2.83;;;2.33;;
13793;SDS011;31160;49.500;7.772;2024-03-22T00:38:37;3.20;;;1.87;;
13793;SDS011;31160;49.500;7.772;2024-03-22T00:41:04;4.43;;;2.30;;
13793;SDS011;31160;49.500;7.772;2024-03-22T00:43:29;6.17;;;2.13;;
13793;SDS011;31160;49.500;7.772;2024-03-22T00:45:55;6.20;;;2.40;;
13793;SDS011;31160;49.500;7.772;2024-03-22T00:48:21;3.13;;;2.00;;
13793;SDS011;31160;49.500;7.772;2024-03-22T00:50:47;2.50;;;2.10;;
13793;SDS011;31160;49.500;7.772;2024-03-22T00:53:13;4.43;;;2.07;;
13793;SDS011;31160;49.500;7.772;2024-03-22T00:55:39;3.40;;;2.50;;
13793;SDS011;31160;49.500;7.772;2024-03-22T00:58:05;4.63;;;2.50;;
13793;SDS011;31160;49.500;7.772;2024-03-22T01:00:31;2.53;;;1.90;;
13793;SDS011;31160;49.500;7.772;2024-03-22T01:02:57;2.77;;;2.30;;
13793;SDS011;31160;49.500;7.772;2024-03-22T01:05:23;3.87;;;2.37;;
13793;SDS011;31160;49.500;7.772;2024-03-22T01:07:48;3.53;;;1.80;;
13793;SDS011;31160;49.500;7.772;2024-03-22T01:10:14;3.20;;;2.10;;
13793;SDS011;31160;49.500;7.772;2024-03-22T01:12:40;2.87;;;2.07;;
13793;SDS011;31160;49.500;7.772;2024-03-22T01:15:06;3.50;;;2.30;;
13793;SDS011;31160;49.500;7.772;2024-03-22T01:17:33;3.90;;;2.43;;
13793;SDS011;31160;49.500;7.772;2024-03-22T01:19:59;3.20;;;2.50;;
13793;SDS011;31160;49.500;7.772;2024-03-22T01:22:25;2.40;;;2.00;;
13793;SDS011;31160;49.500;7.772;2024-03-22T01:24:51;2.40;;;2.03;;
13793;SDS011;31160;49.500;7.772;2024-03-22T01:27:16;3.53;;;2.20;;
13793;SDS011;31160;49.500;7.772;2024-03-22T01:29:42;3.90;;;2.10;;
13793;SDS011;31160;49.500;7.772;2024-03-22T01:32:08;7.93;;;2.30;;
13793;SDS011;31160;49.500;7.772;2024-03-22T01:34:34;4.17;;;2.33;;
13793;SDS011;31160;49.500;7.772;2024-03-22T01:37:00;14.33;;;2.50;;
13793;SDS011;31160;49.500;7.772;2024-03-22T01:39:26;2.40;;;1.97;;
13793;SDS011;31160;49.500;7.772;2024-03-22T01:41:52;6.23;;;2.27;;
13793;SDS011;31160;49.500;7.772;2024-03-22T01:44:18;2.57;;;1.93;;
13793;SDS011;31160;49.500;7.772;2024-03-22T01:46:44;2.90;;;2.07;;
13793;SDS011;31160;49.500;7.772;2024-03-22T01:49:13;4.33;;;2.20;;
13793;SDS011;31160;49.500;7.772;2024-03-22T01:51:41;3.33;;;2.13;;
13793;SDS011;31160;49.500;7.772;2024-03-22T01:54:11;3.00;;;2.30;;
13793;SDS011;31160;49.500;7.772;2024-03-22T01:56:37;4.13;;;2.63;;
13793;SDS011;31160;49.500;7.772;2024-03-22T01:59:07;2.60;;;2.30;;
13793;SDS011;31160;49.500;7.772;2024-03-22T02:01:33;5.53;;;2.27;;
13793;SDS011;31160;49.500;7.772;2024-03-22T02:04:00;2.80;;;1.97;;
13793;SDS011;31160;49.500;7.772;2024-03-22T02:06:26;7.43;;;2.07;;
13793;SDS011;31160;49.500;7.772;2024-03-22T02:08:52;3.47;;;2.47;;
13793;SDS011;31160;49.500;7.772;2024-03-22T02:11:17;4.67;;;2.33;;
13793;SDS011;31160;49.500;7.772;2024-03-22T02:13:44;6.40;;;2.30;;
13793;SDS011;31160;49.500;7.772;2024-03-22T02:16:10;4.27;;;2.10;;
13793;SDS011;31160;49.500;7.772;2024-03-22T02:18:35;6.87;;;2.33;;
13793;SDS011;31160;49.500;7.772;2024-03-22T02:21:01;4.20;;;2.63;;
13793;SDS011;31160;49.500;7.772;2024-03-22T02:23:34;6.73;;;2.70;;
13793;SDS011;31160;49.500;7.772;2024-03-22T02:26:01;2.93;;;2.50;;
13793;SDS011;31160;49.500;7.772;2024-03-22T02:28:27;3.83;;;2.47;;
13793;SDS011;31160;49.500;7.772;2024-03-22T02:30:54;3.33;;;2.47;;
13793;SDS011;31160;49.500;7.772;2024-03-22T02:33:20;3.40;;;2.37;;
13793;SDS011;31160;49.500;7.772;2024-03-22T02:35:46;3.17;;;2.20;;
13793;SDS011;31160;49.500;7.772;2024-03-22T02:38:12;4.57;;;2.40;;
13793;SDS011;31160;49.500;7.772;2024-03-22T02:40:38;2.63;;;2.37;;
13793;SDS011;31160;49.500;7.772;2024-03-22T02:43:04;3.87;;;2.70;;
13793;SDS011;31160;49.500;7.772;2024-03-22T02:45:30;5.17;;;2.37;;
13793;SDS011;31160;49.500;7.772;2024-03-22T02:47:56;3.90;;;2.57;;
13793;SDS011;31160;49.500;7.772;2024-03-22T02:50:22;2.57;;;2.20;;
13793;SDS011;31160;49.500;7.772;2024-03-22T02:52:49;3.50;;;2.03;;
13793;SDS011;31160;49.500;7.772;2024-03-22T02:55:15;4.43;;;2.33;;
13793;SDS011;31160;49.500;7.772;2024-03-22T02:57:41;3.10;;;2.43;;
13793;SDS011;31160;49.500;7.772;2024-03-22T03:00:07;4.93;;;2.50;;
13793;SDS011;31160;49.500;7.772;2024-03-22T03:02:33;3.17;;;2.23;;
13793;SDS011;31160;49.500;7.772;2024-03-22T03:05:00;2.67;;;2.20;;
13793;SDS011;31160;49.500;7.772;2024-03-22T03:07:27;5.70;;;2.40;;
13793;SDS011;31160;49.500;7.772;2024-03-22T03:09:53;3.17;;;2.47;;
13793;SDS011;31160;49.500;7.772;2024-03-22T03:12:19;3.63;;;2.43;;
13793;SDS011;31160;49.500;7.772;2024-03-22T03:14:45;4.53;;;2.20;;
13793;SDS011;31160;49.500;7.772;2024-03-22T03:17:10;3.50;;;2.80;;
13793;SDS011;31160;49.500;7.772;2024-03-22T03:19:36;7.30;;;2.40;;
13793;SDS011;31160;49.500;7.772;2024-03-22T03:22:02;3.00;;;2.43;;
13793;SDS011;31160;49.500;7.772;2024-03-22T03:24:28;5.77;;;2.20;;
13793;SDS011;31160;49.500;7.772;2024-03-22T03:26:54;3.87;;;2.63;;
13793;SDS011;31160;49.500;7.772;2024-03-22T03:29:20;4.13;;;2.50;;
13793;SDS011;31160;49.500;7.772;2024-03-22T03:31:46;3.13;;;1.83;;
13793;SDS011;31160;49.500;7.772;2024-03-22T03:34:12;5.23;;;2.40;;
13793;SDS011;31160;49.500;7.772;2024-03-22T03:36:37;3.57;;;2.73;;
13793;SDS011;31160;49.500;7.772;2024-03-22T03:39:03;4.03;;;2.60;;
13793;SDS011;31160;49.500;7.772;2024-03-22T03:41:29;2.57;;;2.37;;
13793;SDS011;31160;49.500;7.772;2024-03-22T03:43:55;4.87;;;2.30;;
13793;SDS011;31160;49.500;7.772;2024-03-22T03:46:21;5.03;;;2.90;;
13793;SDS011;31160;49.500;7.772;2024-03-22T03:48:47;5.07;;;2.73;;
13793;SDS011;31160;49.500;7.772;2024-03-22T03:51:12;4.67;;;2.37;;
13793;SDS011;31160;49.500;7.772;2024-03-22T03:53:38;4.33;;;2.77;;
13793;SDS011;31160;49.500;7.772;2024-03-22T03:56:04;3.30;;;2.43;;
13793;SDS011;31160;49.500;7.772;2024-03-22T03:58:30;2.90;;;2.10;;
13793;SDS011;31160;49.500;7.772;2024-03-22T04:00:56;5.20;;;2.53;;
13793;SDS011;31160;49.500;7.772;2024-03-22T04:03:22;2.80;;;2.40;;
13793;SDS011;31160;49.500;7.772;2024-03-22T04:05:59;2.87;;;2.33;;
13793;SDS011;31160;49.500;7.772;2024-03-22T04:08:26;4.73;;;2.70;;
13793;SDS011;31160;49.500;7.772;2024-03-22T04:10:55;3.37;;;2.40;;
13793;SDS011;31160;49.500;7.772;2024-03-22T04:13:22;5.53;;;2.70;;
13793;SDS011;31160;49.500;7.772;2024-03-22T04:15:49;6.13;;;2.50;;
13793;SDS011;31160;49.500;7.772;2024-03-22T04:18:15;3.00;;;2.50;;
13793;SDS011;31160;49.500;7.772;2024-03-22T04:20:40;4.43;;;2.00;;
13793;SDS011;31160;49.500;7.772;2024-03-22T04:23:06;4.47;;;2.37;;
13793;SDS011;31160;49.500;7.772;2024-03-22T04:25:32;7.87;;;2.83;;
13793;SDS011;31160;49.500;7.772;2024-03-22T04:27:58;7.40;;;2.93;;
13793;SDS011;31160;49.500;7.772;2024-03-22T04:30:24;4.57;;;2.73;;
13793;SDS011;31160;49.500;7.772;2024-03-22T04:32:49;5.83;;;3.03;;
13793;SDS011;31160;49.500;7.772;2024-03-22T04:35:15;3.80;;;2.70;;
13793;SDS011;31160;49.500;7.772;2024-03-22T04:37:41;5.40;;;3.03;;
13793;SDS011;31160;49.500;7.772;2024-03-22T04:40:07;4.67;;;3.40;;
13793;SDS011;31160;49.500;7.772;2024-03-22T04:42:35;4.43;;;3.30;;
13793;SDS011;31160;49.500;7.772;2024-03-22T04:45:01;9.10;;;3.93;;
13793;SDS011;31160;49.500;7.772;2024-03-22T04:47:27;7.60;;;4.10;;
13793;SDS011;31160;49.500;7.772;2024-03-22T04:49:52;5.13;;;3.80;;
13793;SDS011;31160;49.500;7.772;2024-03-22T04:52:18;5.50;;;3.30;;
13793;SDS011;31160;49.500;7.772;2024-03-22T04:54:44;5.77;;;3.20;;
13793;SDS011;31160;49.500;7.772;2024-03-22T04:57:10;4.37;;;3.20;;
13793;SDS011;31160;49.500;7.772;2024-03-22T04:59:36;5.43;;;3.60;;
13793;SDS011;31160;49.500;7.772;2024-03-22T05:02:02;7.13;;;3.03;;
13793;SDS011;31160;49.500;7.772;2024-03-22T05:04:28;4.53;;;3.00;;
13793;SDS011;31160;49.500;7.772;2024-03-22T05:06:53;3.73;;;3.07;;
13793;SDS011;31160;49.500;7.772;2024-03-22T05:09:19;5.27;;;2.90;;
13793;SDS011;31160;49.500;7.772;2024-03-22T05:11:45;4.70;;;3.03;;
13793;SDS011;31160;49.500;7.772;2024-03-22T05:14:15;3.63;;;2.73;;
13793;SDS011;31160;49.500;7.772;2024-03-22T05:16:41;5.33;;;2.67;;
13793;SDS011;31160;49.500;7.772;2024-03-22T05:19:07;3.93;;;2.53;;
13793;SDS011;31160;49.500;7.772;2024-03-22T05:21:33;4.27;;;2.70;;
13793;SDS011;31160;49.500;7.772;2024-03-22T05:23:59;5.47;;;2.90;;
13793;SDS011;31160;49.500;7.772;2024-03-22T05:26:25;3.63;;;2.60;;
13793;SDS011;31160;49.500;7.772;2024-03-22T05:28:51;4.83;;;2.57;;
13793;SDS011;31160;49.500;7.772;2024-03-22T05:31:17;5.53;;;2.60;;
13793;SDS011;31160;49.500;7.772;2024-03-22T05:33:43;3.63;;;2.83;;
13793;SDS011;31160;49.500;7.772;2024-03-22T05:36:09;4.70;;;2.73;;
13793;SDS011;31160;49.500;7.772;2024-03-22T05:38:35;4.37;;;2.73;;
13793;SDS011;31160;49.500;7.772;2024-03-22T05:41:03;4.77;;;3.30;;
13793;SDS011;31160;49.500;7.772;2024-03-22T05:43:29;6.50;;;2.80;;
13793;SDS011;31160;49.500;7.772;2024-03-22T05:45:55;5.93;;;2.80;;
13793;SDS011;31160;49.500;7.772;2024-03-22T05:48:21;7.07;;;2.97;;
13793;SDS011;31160;49.500;7.772;2024-03-22T05:50:47;9.37;;;2.80;;
13793;SDS011;31160;49.500;7.772;2024-03-22T05:53:13;5.23;;;3.07;;
13793;SDS011;31160;49.500;7.772;2024-03-22T05:55:39;5.27;;;3.07;;
13793;SDS011;31160;49.500;7.772;2024-03-22T05:58:04;5.23;;;2.80;;
13793;SDS011;31160;49.500;7.772;2024-03-22T06:00:30;7.97;;;2.93;;
13793;SDS011;31160;49.500;7.772;2024-03-22T06:02:56;4.37;;;2.53;;
13793;SDS011;31160;49.500;7.772;2024-03-22T06:05:22;5.90;;;2.97;;
13793;SDS011;31160;49.500;7.772;2024-03-22T06:07:48;4.40;;;2.90;;
13793;SDS011;31160;49.500;7.772;2024-03-22T06:10:14;6.60;;;2.80;;
13793;SDS011;31160;49.500;7.772;2024-03-22T06:12:39;7.73;;;3.00;;
13793;SDS011;31160;49.500;7.772;2024-03-22T06:15:06;5.90;;;3.33;;
13793;SDS011;31160;49.500;7.772;2024-03-22T06:17:32;4.77;;;2.73;;
13793;SDS011;31160;49.500;7.772;2024-03-22T06:19:59;3.30;;;2.67;;
13793;SDS011;31160;49.500;7.772;2024-03-22T06:22:25;3.90;;;2.67;;
13793;SDS011;31160;49.500;7.772;2024-03-22T06:24:52;3.07;;;2.30;;
13793;SDS011;31160;49.500;7.772;2024-03-22T06:27:18;5.83;;;3.40;;
13793;SDS011;31160;49.500;7.772;2024-03-22T06:29:44;4.90;;;2.97;;
13793;SDS011;31160;49.500;7.772;2024-03-22T06:32:10;4.97;;;3.10;;
13793;SDS011;31160;49.500;7.772;2024-03-22T06:34:36;4.07;;;3.00;;
13793;SDS011;31160;49.500;7.772;2024-03-22T06:37:02;6.50;;;3.10;;
13793;SDS011;31160;49.500;7.772;2024-03-22T06:39:28;5.30;;;3.17;;
13793;SDS011;31160;49.500;7.772;2024-03-22T06:41:53;5.50;;;3.30;;
13793;SDS011;31160;49.500;7.772;2024-03-22T06:44:19;6.83;;;3.90;;
13793;SDS011;31160;49.500;7.772;2024-03-22T06:46:45;7.27;;;3.27;;
13793;SDS011;31160;49.500;7.772;2024-03-22T06:49:11;5.63;;;3.40;;
13793;SDS011;31160;49.500;7.772;2024-03-22T06:51:37;6.17;;;3.57;;
13793;SDS011;31160;49.500;7.772;2024-03-22T06:54:03;8.40;;;3.63;;
13793;SDS011;31160;49.500;7.772;2024-03-22T06:56:28;4.63;;;3.20;;
13793;SDS011;31160;49.500;7.772;2024-03-22T06:58:54;4.53;;;3.00;;
13793;SDS011;31160;49.500;7.772;2024-03-22T07:01:20;6.70;;;3.70;;
13793;SDS011;31160;49.500;7.772;2024-03-22T07:03:46;8.20;;;3.70;;
13793;SDS011;31160;49.500;7.772;2024-03-22T07:06:13;5.93;;;3.40;;
13793;SDS011;31160;49.500;7.772;2024-03-22T07:08:39;6.33;;;4.33;;
13793;SDS011;31160;49.500;7.772;2024-03-22T07:11:05;11.43;;;5.63;;
13793;SDS011;31160;49.500;7.772;2024-03-22T07:13:32;11.00;;;5.57;;
13793;SDS011;31160;49.500;7.772;2024-03-22T07:15:58;13.50;;;6.50;;
13793;SDS011;31160;49.500;7.772;2024-03-22T07:18:23;10.20;;;5.60;;
13793;SDS011;31160;49.500;7.772;2024-03-22T07:20:49;10.70;;;5.50;;
13793;SDS011;31160;49.500;7.772;2024-03-22T07:23:15;11.70;;;5.27;;
13793;SDS011;31160;49.500;7.772;2024-03-22T07:25:41;8.80;;;4.77;;
13793;SDS011;31160;49.500;7.772;2024-03-22T07:28:11;4.57;;;3.97;;
13793;SDS011;31160;49.500;7.772;2024-03-22T07:30:37;6.90;;;3.50;;
13793;SDS011;31160;49.500;7.772;2024-03-22T07:33:03;9.43;;;4.67;;
13793;SDS011;31160;49.500;7.772;2024-03-22T07:35:29;8.17;;;4.73;;
13793;SDS011;31160;49.500;7.772;2024-03-22T07:37:56;8.77;;;4.93;;
13793;SDS011;31160;49.500;7.772;2024-03-22T07:40:22;7.47;;;4.37;;
13793;SDS011;31160;49.500;7.772;2024-03-22T07:42:47;8.33;;;4.23;;
13793;SDS011;31160;49.500;7.772;2024-03-22T07:45:14;8.43;;;4.53;;
13793;SDS011;31160;49.500;7.772;2024-03-22T07:47:40;5.63;;;3.90;;
13793;SDS011;31160;49.500;7.772;2024-03-22T07:50:07;7.13;;;4.20;;
13793;SDS011;31160;49.500;7.772;2024-03-22T07:52:34;7.10;;;4.27;;
13793;SDS011;31160;49.500;7.772;2024-03-22T07:54:59;8.27;;;4.37;;
13793;SDS011;31160;49.500;7.772;2024-03-22T07:57:28;7.57;;;4.17;;
13793;SDS011;31160;49.500;7.772;2024-03-22T07:59:56;7.50;;;3.67;;
13793;SDS011;31160;49.500;7.772;2024-03-22T08:02:23;6.63;;;4.10;;
13793;SDS011;31160;49.500;7.772;2024-03-22T08:04:49;9.57;;;4.77;;
13793;SDS011;31160;49.500;7.772;2024-03-22T08:07:15;6.50;;;3.83;;
13793;SDS011;31160;49.500;7.772;2024-03-22T08:09:41;7.33;;;3.97;;
13793;SDS011;31160;49.500;7.772;2024-03-22T08:12:07;6.00;;;4.10;;
13793;SDS011;31160;49.500;7.772;2024-03-22T08:14:33;8.17;;;5.00;;
13793;SDS011;31160;49.500;7.772;2024-03-22T08:16:58;6.47;;;4.47;;
13793;SDS011;31160;49.500;7.772;2024-03-22T08:19:24;9.03;;;5.07;;
13793;SDS011;31160;49.500;7.772;2024-03-22T08:21:50;10.53;;;5.43;;
13793;SDS011;31160;49.500;7.772;2024-03-22T08:24:16;11.73;;;5.53;;
13793;SDS011;31160;49.500;7.772;2024-03-22T08:26:44;7.07;;;4.90;;
13793;SDS011;31160;49.500;7.772;2024-03-22T08:29:12;9.10;;;5.07;;
13793;SDS011;31160;49.500;7.772;2024-03-22T08:31:40;10.60;;;4.87;;
13793;SDS011;31160;49.500;7.772;2024-03-22T08:34:07;7.70;;;4.37;;
13793;SDS011;31160;49.500;7.772;2024-03-22T08:36:33;7.67;;;4.90;;
13793;SDS011;31160;49.500;7.772;2024-03-22T08:38:59;7.07;;;4.73;;
13793;SDS011;31160;49.500;7.772;2024-03-22T08:41:25;8.73;;;5.70;;
13793;SDS011;31160;49.500;7.772;2024-03-22T08:43:51;10.17;;;5.20;;
13793;SDS011;31160;49.500;7.772;2024-03-22T08:46:17;8.30;;;5.40;;
13793;SDS011;31160;49.500;7.772;2024-03-22T08:48:43;9.73;;;4.93;;
13793;SDS011;31160;49.500;7.772;2024-03-22T08:51:09;6.30;;;4.07;;
13793;SDS011;31160;49.500;7.772;2024-03-22T08:53:35;8.00;;;5.20;;
13793;SDS011;31160;49.500;7.772;2024-03-22T08:56:01;6.37;;;4.80;;
13793;SDS011;31160;49.500;7.772;2024-03-22T08:58:26;6.00;;;4.10;;
13793;SDS011;31160;49.500;7.772;2024-03-22T09:00:52;9.10;;;5.60;;
13793;SDS011;31160;49.500;7.772;2024-03-22T09:03:18;8.43;;;5.80;;
13793;SDS011;31160;49.500;7.772;2024-03-22T09:05:46;7.80;;;5.23;;
13793;SDS011;31160;49.500;7.772;2024-03-22T09:08:12;25.93;;;7.43;;
13793;SDS011;31160;49.500;7.772;2024-03-22T09:10:38;9.83;;;5.03;;
13793;SDS011;31160;49.500;7.772;2024-03-22T09:13:04;7.17;;;4.37;;
13793;SDS011;31160;49.500;7.772;2024-03-22T09:15:30;5.97;;;3.90;;
13793;SDS011;31160;49.500;7.772;2024-03-22T09:17:56;7.27;;;4.23;;
13793;SDS011;31160;49.500;7.772;2024-03-22T09:20:22;13.53;;;4.60;;
13793;SDS011;31160;49.500;7.772;2024-03-22T09:22:48;12.87;;;4.60;;
13793;SDS011;31160;49.500;7.772;2024-03-22T09:25:14;7.00;;;4.00;;
13793;SDS011;31160;49.500;7.772;2024-03-22T09:27:40;16.27;;;4.10;;
13793;SDS011;31160;49.500;7.772;2024-03-22T09:30:07;7.17;;;4.07;;
13793;SDS011;31160;49.500;7.772;2024-03-22T09:32:35;6.33;;;3.83;;
13793;SDS011;31160;49.500;7.772;2024-03-22T09:35:01;5.77;;;3.83;;
13793;SDS011;31160;49.500;7.772;2024-03-22T09:37:26;7.70;;;4.37;;
13793;SDS011;31160;49.500;7.772;2024-03-22T09:39:52;5.30;;;3.50;;
13793;SDS011;31160;49.500;7.772;2024-03-22T09:42:18;5.90;;;4.10;;
13793;SDS011;31160;49.500;7.772;2024-03-22T09:44:50;8.97;;;3.90;;
13793;SDS011;31160;49.500;7.772;2024-03-22T09:47:17;12.00;;;4.47;;
13793;SDS011;31160;49.500;7.772;2024-03-22T09:49:46;9.90;;;4.03;;
13793;SDS011;31160;49.500;7.772;2024-03-22T09:52:14;7.87;;;3.73;;
13793;SDS011;31160;49.500;7.772;2024-03-22T09:54:43;20.43;;;5.27;;
13793;SDS011;31160;49.500;7.772;2024-03-22T09:57:09;20.87;;;5.17;;
13793;SDS011;31160;49.500;7.772;2024-03-22T09:59:43;14.03;;;4.03;;
13793;SDS011;31160;49.500;7.772;2024-03-22T10:02:12;8.47;;;5.37;;
13793;SDS011;31160;49.500;7.772;2024-03-22T10:04:39;6.57;;;4.70;;
13793;SDS011;31160;49.500;7.772;2024-03-22T10:07:06;7.10;;;4.30;;
13793;SDS011;31160;49.500;7.772;2024-03-22T10:09:33;7.43;;;4.27;;
13793;SDS011;31160;49.500;7.772;2024-03-22T10:11:59;5.70;;;3.67;;
13793;SDS011;31160;49.500;7.772;2024-03-22T10:14:25;9.30;;;4.40;;
13793;SDS011;31160;49.500;7.772;2024-03-22T10:16:52;7.90;;;3.80;;
13793;SDS011;31160;49.500;7.772;2024-03-22T10:19:22;7.83;;;4.17;;
13793;SDS011;31160;49.500;7.772;2024-03-22T10:22:01;5.07;;;3.87;;
13793;SDS011;31160;49.500;7.772;2024-03-22T10:24:28;7.43;;;4.33;;
13793;SDS011;31160;49.500;7.772;2024-03-22T10:26:54;5.27;;;4.03;;
13793;SDS011;31160;49.500;7.772;2024-03-22T10:29:21;5.60;;;3.70;;
13793;SDS011;31160;49.500;7.772;2024-03-22T10:31:47;6.63;;;4.20;;
13793;SDS011;31160;49.500;7.772;2024-03-22T10:34:15;5.17;;;3.83;;
13793;SDS011;31160;49.500;7.772;2024-03-22T10:36:44;7.97;;;4.03;;
13793;SDS011;31160;49.500;7.772;2024-03-22T10:39:12;4.97;;;3.67;;
13793;SDS011;31160;49.500;7.772;2024-03-22T10:41:42;7.10;;;4.07;;
13793;SDS011;31160;49.500;7.772;2024-03-22T10:44:09;5.47;;;3.57;;
13793;SDS011;31160;49.500;7.772;2024-03-22T10:46:35;5.73;;;3.80;;
13793;SDS011;31160;49.500;7.772;2024-03-22T10:49:02;6.00;;;4.03;;
13793;SDS011;31160;49.500;7.772;2024-03-22T10:51:29;7.87;;;5.00;;
13793;SDS011;31160;49.500;7.772;2024-03-22T10:53:57;6.03;;;3.43;;
13793;SDS011;31160;49.500;7.772;2024-03-22T10:56:25;5.07;;;3.90;;
13793;SDS011;31160;49.500;7.772;2024-03-22T10:58:51;7.77;;;4.40;;
13793;SDS011;31160;49.500;7.772;2024-03-22T11:01:21;8.23;;;4.53;;
13793;SDS011;31160;49.500;7.772;2024-03-22T11:03:48;8.40;;;5.50;;
13793;SDS011;31160;49.500;7.772;2024-03-22T11:06:17;6.80;;;4.40;;
13793;SDS011;31160;49.500;7.772;2024-03-22T11:08:49;9.57;;;5.70;;
13793;SDS011;31160;49.500;7.772;2024-03-22T11:11:17;6.57;;;5.13;;
13793;SDS011;31160;49.500;7.772;2024-03-22T11:13:46;8.03;;;4.73;;
13793;SDS011;31160;49.500;7.772;2024-03-22T11:16:14;9.40;;;5.33;;
13793;SDS011;31160;49.500;7.772;2024-03-22T11:18:40;9.13;;;4.77;;
13793;SDS011;31160;49.500;7.772;2024-03-22T11:21:06;8.20;;;5.60;;
13793;SDS011;31160;49.500;7.772;2024-03-22T11:23:37;8.87;;;6.57;;
13793;SDS011;31160;49.500;7.772;2024-03-22T11:26:03;8.50;;;5.80;;
13793;SDS011;31160;49.500;7.772;2024-03-22T11:28:29;11.57;;;7.07;;
13793;SDS011;31160;49.500;7.772;2024-03-22T11:30:56;9.03;;;6.27;;
13793;SDS011;31160;49.500;7.772;2024-03-22T11:33:22;8.87;;;6.03;;
13793;SDS011;31160;49.500;7.772;2024-03-22T11:35:48;10.57;;;6.73;;
13793;SDS011;31160;49.500;7.772;2024-03-22T11:38:16;12.10;;;7.60;;
13793;SDS011;31160;49.500;7.772;2024-03-22T11:40:43;11.63;;;7.47;;
13793;SDS011;31160;49.500;7.772;2024-03-22T11:43:09;12.60;;;8.37;;
13793;SDS011;31160;49.500;7.772;2024-03-22T11:45:36;12.73;;;8.70;;
13793;SDS011;31160;49.500;7.772;2024-03-22T11:48:02;13.63;;;7.27;;
13793;SDS011;31160;49.500;7.772;2024-03-22T11:50:29;12.33;;;7.43;;
13793;SDS011;31160;49.500;7.772;2024-03-22T11:52:55;9.90;;;8.20;;
13793;SDS011;31160;49.500;7.772;2024-03-22T11:55:21;12.23;;;7.93;;
13793;SDS011;31160;49.500;7.772;2024-03-22T11:57:50;9.63;;;7.73;;
13793;SDS011;31160;49.500;7.772;2024-03-22T12:00:18;11.93;;;7.43;;
13793;SDS011;31160;49.500;7.772;2024-03-22T12:02:44;10.77;;;8.43;;
13793;SDS011;31160;49.500;7.772;2024-03-22T12:05:11;14.23;;;7.80;;
13793;SDS011;31160;49.500;7.772;2024-03-22T12:07:37;12.43;;;7.90;;
13793;SDS011;31160;49.500;7.772;2024-03-22T12:10:03;9.37;;;7.50;;
13793;SDS011;31160;49.500;7.772;2024-03-22T12:12:29;13.37;;;8.93;;
13793;SDS011;31160;49.500;7.772;2024-03-22T12:14:55;10.97;;;8.33;;
13793;SDS011;31160;49.500;7.772;2024-03-22T12:17:21;16.43;;;11.20;;
13793;SDS011;31160;49.500;7.772;2024-03-22T12:19:47;15.20;;;10.33;;
13793;SDS011;31160;49.500;7.772;2024-03-22T12:22:13;16.90;;;10.30;;
13793;SDS011;31160;49.500;7.772;2024-03-22T12:24:39;13.83;;;9.43;;
13793;SDS011;31160;49.500;7.772;2024-03-22T12:27:04;11.50;;;8.80;;
13793;SDS011;31160;49.500;7.772;2024-03-22T12:29:34;17.07;;;9.93;;
13793;SDS011;31160;49.500;7.772;2024-03-22T12:32:01;15.30;;;8.90;;
13793;SDS011;31160;49.500;7.772;2024-03-22T12:34:29;38.60;;;20.00;;
13793;SDS011;31160;49.500;7.772;2024-03-22T12:36:55;30.57;;;16.53;;
13793;SDS011;31160;49.500;7.772;2024-03-22T12:39:21;82.23;;;36.83;;
13793;SDS011;31160;49.500;7.772;2024-03-22T12:41:47;13.70;;;9.53;;
13793;SDS011;31160;49.500;7.772;2024-03-22T12:44:13;16.53;;;10.03;;
13793;SDS011;31160;49.500;7.772;2024-03-22T12:46:39;16.17;;;10.77;;
13793;SDS011;31160;49.500;7.772;2024-03-22T12:49:07;13.83;;;9.00;;
13793;SDS011;31160;49.500;7.772;2024-03-22T12:51:34;13.60;;;10.20;;
13793;SDS011;31160;49.500;7.772;2024-03-22T12:54:01;21.03;;;12.40;;
13793;SDS011;31160;49.500;7.772;2024-03-22T12:56:28;13.63;;;10.00;;
13793;SDS011;31160;49.500;7.772;2024-03-22T12:58:54;13.27;;;8.90;;
13793;SDS011;31160;49.500;7.772;2024-03-22T13:01:20;13.23;;;9.07;;
13793;SDS011;31160;49.500;7.772;2024-03-22T13:03:46;9.07;;;7.00;;
13793;SDS011;31160;49.500;7.772;2024-03-22T13:06:12;14.87;;;7.90;;
13793;SDS011;31160;49.500;7.772;2024-03-22T13:08:38;13.67;;;7.80;;
13793;SDS011;31160;49.500;7.772;2024-03-22T13:11:04;10.67;;;7.53;;
13793;SDS011;31160;49.500;7.772;2024-03-22T13:13:33;13.97;;;9.10;;
13793;SDS011;31160;49.500;7.772;2024-03-22T13:15:59;11.53;;;8.47;;
13793;SDS011;31160;49.500;7.772;2024-03-22T13:18:28;12.63;;;8.73;;
13793;SDS011;31160;49.500;7.772;2024-03-22T13:20:54;15.07;;;9.23;;
13793;SDS011;31160;49.500;7.772;2024-03-22T13:23:20;13.60;;;7.37;;
13793;SDS011;31160;49.500;7.772;2024-03-22T13:25:46;12.93;;;8.47;;
13793;SDS011;31160;49.500;7.772;2024-03-22T13:28:12;14.27;;;7.83;;
13793;SDS011;31160;49.500;7.772;2024-03-22T13:30:37;11.80;;;7.57;;
13793;SDS011;31160;49.500;7.772;2024-03-22T13:33:04;8.57;;;6.97;;
13793;SDS011;31160;49.500;7.772;2024-03-22T13:35:31;14.33;;;7.43;;
13793;SDS011;31160;49.500;7.772;2024-03-22T13:37:58;11.20;;;7.20;;
13793;SDS011;31160;49.500;7.772;2024-03-22T13:40:26;49.70;;;25.17;;
13793;SDS011;31160;49.500;7.772;2024-03-22T13:42:55;33.07;;;17.67;;
13793;SDS011;31160;49.500;7.772;2024-03-22T13:45:21;25.40;;;12.97;;
13793;SDS011;31160;49.500;7.772;2024-03-22T13:47:46;11.73;;;7.93;;
13793;SDS011;31160;49.500;7.772;2024-03-22T13:50:13;15.97;;;9.13;;
13793;SDS011;31160;49.500;7.772;2024-03-22T13:52:38;14.30;;;8.97;;
13793;SDS011;31160;49.500;7.772;2024-03-22T13:55:04;13.13;;;8.70;;
13793;SDS011;31160;49.500;7.772;2024-03-22T13:57:31;11.77;;;8.10;;
13793;SDS011;31160;49.500;7.772;2024-03-22T13:59:57;14.03;;;8.67;;
13793;SDS011;31160;49.500;7.772;2024-03-22T14:02:24;18.10;;;9.73;;
13793;SDS011;31160;49.500;7.772;2024-03-22T14:04:50;16.77;;;9.97;;
13793;SDS011;31160;49.500;7.772;2024-03-22T14:07:15;13.17;;;8.70;;
13793;SDS011;31160;49.500;7.772;2024-03-22T14:09:42;13.07;;;8.83;;
13793;SDS011;31160;49.500;7.772;2024-03-22T14:12:08;12.27;;;8.57;;
13793;SDS011;31160;49.500;7.772;2024-03-22T14:14:34;11.00;;;8.13;;
13793;SDS011;31160;49.500;7.772;2024-03-22T14:17:00;10.60;;;8.67;;
13793;SDS011;31160;49.500;7.772;2024-03-22T14:19:26;15.90;;;9.37;;
13793;SDS011;31160;49.500;7.772;2024-03-22T14:21:52;13.17;;;8.13;;
13793;SDS011;31160;49.500;7.772;2024-03-22T14:24:18;12.30;;;8.20;;
13793;SDS011;31160;49.500;7.772;2024-03-22T14:26:44;12.03;;;8.53;;
13793;SDS011;31160;49.500;7.772;2024-03-22T14:29:10;10.27;;;8.03;;
13793;SDS011;31160;49.500;7.772;2024-03-22T14:31:37;11.80;;;7.90;;
13793;SDS011;31160;49.500;7.772;2024-03-22T14:34:03;11.30;;;7.57;;
13793;SDS011;31160;49.500;7.772;2024-03-22T14:36:32;10.50;;;7.67;;
13793;SDS011;31160;49.500;7.772;2024-03-22T14:38:58;11.50;;;7.37;;